sensor_id;sensor_type;location;lat;lon;timestamp;P1;durP1;ratioP1;P2;durP2;ratioP2
71570;SDS011;59407;42.682;23.322;2024-03-17T00:01:15;19.87;;;10.13;;
71570;SDS011;59407;42.682;23.322;2024-03-17T00:03:41;20.75;;;11.68;;
71570;SDS011;59407;42.682;23.322;2024-03-17T00:06:08;24.48;;;13.02;;
71570;SDS011;59407;42.682;23.322;2024-03-17T00:08:35;25.80;;;12.75;;
71570;SDS011;59407;42.682;23.322;2024-03-17T00:11:01;23.52;;;13.20;;
71570;SDS011;59407;42.682;23.322;2024-03-17T00:13:27;23.27;;;13.50;;
71570;SDS011;59407;42.682;23.322;2024-03-17T00:15:53;25.63;;;12.75;;
71570;SDS011;59407;42.682;23.322;2024-03-17T00:18:19;29.42;;;14.40;;
71570;SDS011;59407;42.682;23.322;2024-03-17T00:20:45;28.77;;;14.17;;
71570;SDS011;59407;42.682;23.322;2024-03-17T00:23:11;26.00;;;13.90;;
71570;SDS011;59407;42.682;23.322;2024-03-17T00:25:39;25.55;;;13.68;;
71570;SDS011;59407;42.682;23.322;2024-03-17T00:28:05;30.93;;;16.07;;
71570;SDS011;59407;42.682;23.322;2024-03-17T00:30:31;28.20;;;15.13;;
71570;SDS011;59407;42.682;23.322;2024-03-17T00:32:58;28.93;;;13.87;;
71570;SDS011;59407;42.682;23.322;2024-03-17T00:35:24;26.53;;;14.80;;
71570;SDS011;59407;42.682;23.322;2024-03-17T00:37:50;25.05;;;14.50;;
71570;SDS011;59407;42.682;23.322;2024-03-17T00:40:17;29.00;;;14.63;;
71570;SDS011;59407;42.682;23.322;2024-03-17T00:42:45;24.63;;;12.80;;
71570;SDS011;59407;42.682;23.322;2024-03-17T00:45:10;29.63;;;14.47;;
71570;SDS011;59407;42.682;23.322;2024-03-17T00:47:36;28.30;;;14.50;;
71570;SDS011;59407;42.682;23.322;2024-03-17T00:50:04;29.07;;;14.77;;
71570;SDS011;59407;42.682;23.322;2024-03-17T00:52:31;30.52;;;14.90;;
71570;SDS011;59407;42.682;23.322;2024-03-17T00:54:58;31.40;;;14.35;;
71570;SDS011;59407;42.682;23.322;2024-03-17T00:57:26;30.60;;;13.43;;
71570;SDS011;59407;42.682;23.322;2024-03-17T00:59:52;28.70;;;14.68;;
71570;SDS011;59407;42.682;23.322;2024-03-17T01:02:18;28.13;;;14.10;;
71570;SDS011;59407;42.682;23.322;2024-03-17T01:04:44;32.63;;;13.88;;
71570;SDS011;59407;42.682;23.322;2024-03-17T01:07:11;32.13;;;13.75;;
71570;SDS011;59407;42.682;23.322;2024-03-17T01:09:38;27.80;;;14.50;;
71570;SDS011;59407;42.682;23.322;2024-03-17T01:12:05;33.67;;;14.87;;
71570;SDS011;59407;42.682;23.322;2024-03-17T01:14:34;28.67;;;14.80;;
71570;SDS011;59407;42.682;23.322;2024-03-17T01:17:00;30.83;;;15.27;;
71570;SDS011;59407;42.682;23.322;2024-03-17T01:19:30;29.40;;;14.68;;
71570;SDS011;59407;42.682;23.322;2024-03-17T01:21:56;30.08;;;14.15;;
71570;SDS011;59407;42.682;23.322;2024-03-17T01:24:23;23.60;;;12.47;;
71570;SDS011;59407;42.682;23.322;2024-03-17T01:26:49;26.58;;;14.13;;
71570;SDS011;59407;42.682;23.322;2024-03-17T01:29:15;27.40;;;13.38;;
71570;SDS011;59407;42.682;23.322;2024-03-17T01:31:42;30.57;;;14.10;;
71570;SDS011;59407;42.682;23.322;2024-03-17T01:34:08;30.35;;;14.32;;
71570;SDS011;59407;42.682;23.322;2024-03-17T01:36:35;27.20;;;13.70;;
71570;SDS011;59407;42.682;23.322;2024-03-17T01:39:00;26.27;;;13.60;;
71570;SDS011;59407;42.682;23.322;2024-03-17T01:41:27;29.50;;;13.32;;
71570;SDS011;59407;42.682;23.322;2024-03-17T01:43:56;28.73;;;14.07;;
71570;SDS011;59407;42.682;23.322;2024-03-17T01:46:24;30.17;;;13.50;;
71570;SDS011;59407;42.682;23.322;2024-03-17T01:48:49;23.77;;;12.77;;
71570;SDS011;59407;42.682;23.322;2024-03-17T01:51:15;31.70;;;14.52;;
71570;SDS011;59407;42.682;23.322;2024-03-17T01:53:45;33.83;;;14.27;;
71570;SDS011;59407;42.682;23.322;2024-03-17T01:56:11;25.57;;;13.70;;
71570;SDS011;59407;42.682;23.322;2024-03-17T01:58:37;28.17;;;14.20;;
71570;SDS011;59407;42.682;23.322;2024-03-17T02:01:04;26.40;;;14.00;;
71570;SDS011;59407;42.682;23.322;2024-03-17T02:03:31;25.30;;;13.07;;
71570;SDS011;59407;42.682;23.322;2024-03-17T02:06:02;28.40;;;13.35;;
71570;SDS011;59407;42.682;23.322;2024-03-17T02:08:45;26.33;;;13.77;;
71570;SDS011;59407;42.682;23.322;2024-03-17T02:11:24;24.60;;;12.93;;
71570;SDS011;59407;42.682;23.322;2024-03-17T02:13:51;26.65;;;13.38;;
71570;SDS011;59407;42.682;23.322;2024-03-17T02:16:21;29.50;;;13.50;;
71570;SDS011;59407;42.682;23.322;2024-03-17T02:18:54;28.67;;;13.02;;
71570;SDS011;59407;42.682;23.322;2024-03-17T02:21:22;28.80;;;13.57;;
71570;SDS011;59407;42.682;23.322;2024-03-17T02:23:49;27.10;;;13.70;;
71570;SDS011;59407;42.682;23.322;2024-03-17T02:26:15;26.77;;;13.73;;
71570;SDS011;59407;42.682;23.322;2024-03-17T02:28:41;27.23;;;13.98;;
71570;SDS011;59407;42.682;23.322;2024-03-17T02:31:17;27.87;;;14.43;;
71570;SDS011;59407;42.682;23.322;2024-03-17T02:33:48;24.85;;;12.30;;
71570;SDS011;59407;42.682;23.322;2024-03-17T02:36:14;32.67;;;14.00;;
71570;SDS011;59407;42.682;23.322;2024-03-17T02:38:42;28.02;;;13.35;;
71570;SDS011;59407;42.682;23.322;2024-03-17T02:41:27;26.25;;;12.50;;
71570;SDS011;59407;42.682;23.322;2024-03-17T02:43:54;24.50;;;12.63;;
71570;SDS011;59407;42.682;23.322;2024-03-17T02:46:21;24.65;;;13.27;;
71570;SDS011;59407;42.682;23.322;2024-03-17T02:48:50;24.83;;;13.23;;
71570;SDS011;59407;42.682;23.322;2024-03-17T02:51:18;27.77;;;13.20;;
71570;SDS011;59407;42.682;23.322;2024-03-17T02:53:45;27.48;;;13.27;;
71570;SDS011;59407;42.682;23.322;2024-03-17T02:56:13;27.23;;;12.73;;
71570;SDS011;59407;42.682;23.322;2024-03-17T02:58:43;23.42;;;12.27;;
71570;SDS011;59407;42.682;23.322;2024-03-17T03:01:11;26.60;;;14.15;;
71570;SDS011;59407;42.682;23.322;2024-03-17T03:03:37;25.40;;;12.90;;
71570;SDS011;59407;42.682;23.322;2024-03-17T03:06:05;29.13;;;15.15;;
71570;SDS011;59407;42.682;23.322;2024-03-17T03:08:38;24.10;;;12.27;;
71570;SDS011;59407;42.682;23.322;2024-03-17T03:11:06;26.10;;;12.50;;
71570;SDS011;59407;42.682;23.322;2024-03-17T03:13:40;26.50;;;13.65;;
71570;SDS011;59407;42.682;23.322;2024-03-17T03:16:07;24.67;;;13.30;;
71570;SDS011;59407;42.682;23.322;2024-03-17T03:18:33;26.42;;;13.35;;
71570;SDS011;59407;42.682;23.322;2024-03-17T03:21:11;25.00;;;11.77;;
71570;SDS011;59407;42.682;23.322;2024-03-17T03:23:37;25.92;;;13.07;;
71570;SDS011;59407;42.682;23.322;2024-03-17T03:26:03;30.05;;;13.50;;
71570;SDS011;59407;42.682;23.322;2024-03-17T03:28:30;28.47;;;14.07;;
71570;SDS011;59407;42.682;23.322;2024-03-17T03:31:00;27.05;;;12.80;;
71570;SDS011;59407;42.682;23.322;2024-03-17T03:33:27;22.80;;;12.15;;
71570;SDS011;59407;42.682;23.322;2024-03-17T03:35:53;27.08;;;12.75;;
71570;SDS011;59407;42.682;23.322;2024-03-17T03:38:20;26.67;;;12.90;;
71570;SDS011;59407;42.682;23.322;2024-03-17T03:40:50;26.58;;;12.13;;
71570;SDS011;59407;42.682;23.322;2024-03-17T03:43:17;31.13;;;14.38;;
71570;SDS011;59407;42.682;23.322;2024-03-17T03:45:44;26.15;;;12.55;;
71570;SDS011;59407;42.682;23.322;2024-03-17T03:48:10;30.83;;;13.77;;
71570;SDS011;59407;42.682;23.322;2024-03-17T03:50:37;25.63;;;13.20;;
71570;SDS011;59407;42.682;23.322;2024-03-17T03:53:03;25.25;;;13.18;;
71570;SDS011;59407;42.682;23.322;2024-03-17T03:55:32;28.52;;;14.57;;
71570;SDS011;59407;42.682;23.322;2024-03-17T03:57:59;26.10;;;12.37;;
71570;SDS011;59407;42.682;23.322;2024-03-17T04:00:24;31.10;;;13.77;;
71570;SDS011;59407;42.682;23.322;2024-03-17T04:02:56;28.55;;;12.70;;
71570;SDS011;59407;42.682;23.322;2024-03-17T04:05:21;27.65;;;13.02;;
71570;SDS011;59407;42.682;23.322;2024-03-17T04:07:47;26.60;;;14.07;;
71570;SDS011;59407;42.682;23.322;2024-03-17T04:10:15;30.55;;;13.02;;
71570;SDS011;59407;42.682;23.322;2024-03-17T04:12:45;33.80;;;14.05;;
71570;SDS011;59407;42.682;23.322;2024-03-17T04:15:12;29.23;;;14.80;;
71570;SDS011;59407;42.682;23.322;2024-03-17T04:17:39;27.90;;;13.50;;
71570;SDS011;59407;42.682;23.322;2024-03-17T04:20:07;24.60;;;13.27;;
71570;SDS011;59407;42.682;23.322;2024-03-17T04:22:34;30.90;;;14.25;;
71570;SDS011;59407;42.682;23.322;2024-03-17T04:25:02;24.90;;;12.70;;
71570;SDS011;59407;42.682;23.322;2024-03-17T04:27:29;23.80;;;13.15;;
71570;SDS011;59407;42.682;23.322;2024-03-17T04:29:55;27.97;;;13.40;;
71570;SDS011;59407;42.682;23.322;2024-03-17T04:32:23;30.35;;;14.10;;
71570;SDS011;59407;42.682;23.322;2024-03-17T04:34:48;25.52;;;12.32;;
71570;SDS011;59407;42.682;23.322;2024-03-17T04:37:16;30.38;;;12.82;;
71570;SDS011;59407;42.682;23.322;2024-03-17T04:39:43;26.55;;;12.60;;
71570;SDS011;59407;42.682;23.322;2024-03-17T04:42:14;31.20;;;13.23;;
71570;SDS011;59407;42.682;23.322;2024-03-17T04:44:41;25.02;;;12.65;;
71570;SDS011;59407;42.682;23.322;2024-03-17T04:47:07;26.20;;;13.02;;
71570;SDS011;59407;42.682;23.322;2024-03-17T04:49:37;31.40;;;14.05;;
71570;SDS011;59407;42.682;23.322;2024-03-17T04:52:03;27.10;;;13.52;;
71570;SDS011;59407;42.682;23.322;2024-03-17T04:54:28;29.83;;;13.57;;
71570;SDS011;59407;42.682;23.322;2024-03-17T04:56:55;25.00;;;12.07;;
71570;SDS011;59407;42.682;23.322;2024-03-17T04:59:21;27.75;;;13.15;;
71570;SDS011;59407;42.682;23.322;2024-03-17T05:01:47;32.80;;;14.67;;
71570;SDS011;59407;42.682;23.322;2024-03-17T05:04:13;28.77;;;13.00;;
71570;SDS011;59407;42.682;23.322;2024-03-17T05:06:40;26.02;;;12.50;;
71570;SDS011;59407;42.682;23.322;2024-03-17T05:09:07;28.98;;;13.98;;
71570;SDS011;59407;42.682;23.322;2024-03-17T05:11:33;32.10;;;14.75;;
71570;SDS011;59407;42.682;23.322;2024-03-17T05:14:00;24.60;;;13.73;;
71570;SDS011;59407;42.682;23.322;2024-03-17T05:16:26;28.75;;;13.82;;
71570;SDS011;59407;42.682;23.322;2024-03-17T05:18:54;29.85;;;13.70;;
71570;SDS011;59407;42.682;23.322;2024-03-17T05:21:20;28.27;;;14.40;;
71570;SDS011;59407;42.682;23.322;2024-03-17T05:23:47;27.77;;;14.45;;
71570;SDS011;59407;42.682;23.322;2024-03-17T05:26:14;27.87;;;13.57;;
71570;SDS011;59407;42.682;23.322;2024-03-17T05:28:40;27.00;;;14.10;;
71570;SDS011;59407;42.682;23.322;2024-03-17T05:31:07;25.13;;;13.18;;
71570;SDS011;59407;42.682;23.322;2024-03-17T05:33:34;24.25;;;12.90;;
71570;SDS011;59407;42.682;23.322;2024-03-17T05:36:00;24.13;;;13.60;;
71570;SDS011;59407;42.682;23.322;2024-03-17T05:38:27;27.52;;;13.73;;
71570;SDS011;59407;42.682;23.322;2024-03-17T05:41:01;28.00;;;12.43;;
71570;SDS011;59407;42.682;23.322;2024-03-17T05:43:34;25.13;;;13.13;;
71570;SDS011;59407;42.682;23.322;2024-03-17T05:46:01;26.27;;;13.30;;
71570;SDS011;59407;42.682;23.322;2024-03-17T05:48:28;24.30;;;13.38;;
71570;SDS011;59407;42.682;23.322;2024-03-17T05:50:53;24.33;;;13.20;;
71570;SDS011;59407;42.682;23.322;2024-03-17T05:53:21;28.98;;;13.32;;
71570;SDS011;59407;42.682;23.322;2024-03-17T05:55:51;27.27;;;13.93;;
71570;SDS011;59407;42.682;23.322;2024-03-17T05:58:18;28.23;;;13.40;;
71570;SDS011;59407;42.682;23.322;2024-03-17T06:00:43;23.00;;;12.98;;
71570;SDS011;59407;42.682;23.322;2024-03-17T06:03:10;26.15;;;13.15;;
71570;SDS011;59407;42.682;23.322;2024-03-17T06:05:36;27.67;;;13.80;;
71570;SDS011;59407;42.682;23.322;2024-03-17T06:08:05;28.48;;;14.70;;
71570;SDS011;59407;42.682;23.322;2024-03-17T06:10:33;28.75;;;13.80;;
71570;SDS011;59407;42.682;23.322;2024-03-17T06:13:01;25.10;;;13.30;;
71570;SDS011;59407;42.682;23.322;2024-03-17T06:15:29;32.77;;;14.87;;
71570;SDS011;59407;42.682;23.322;2024-03-17T06:17:55;24.55;;;13.90;;
71570;SDS011;59407;42.682;23.322;2024-03-17T06:20:26;31.98;;;15.00;;
71570;SDS011;59407;42.682;23.322;2024-03-17T06:22:55;32.05;;;16.02;;
71570;SDS011;59407;42.682;23.322;2024-03-17T06:25:21;26.63;;;14.27;;
71570;SDS011;59407;42.682;23.322;2024-03-17T06:27:53;31.43;;;14.70;;
71570;SDS011;59407;42.682;23.322;2024-03-17T06:30:19;26.98;;;14.50;;
71570;SDS011;59407;42.682;23.322;2024-03-17T06:32:46;26.52;;;12.60;;
71570;SDS011;59407;42.682;23.322;2024-03-17T06:35:14;27.40;;;12.40;;
71570;SDS011;59407;42.682;23.322;2024-03-17T06:37:43;23.52;;;12.35;;
71570;SDS011;59407;42.682;23.322;2024-03-17T06:40:13;23.53;;;11.60;;
71570;SDS011;59407;42.682;23.322;2024-03-17T06:42:40;22.13;;;12.65;;
71570;SDS011;59407;42.682;23.322;2024-03-17T06:45:06;22.30;;;12.43;;
71570;SDS011;59407;42.682;23.322;2024-03-17T06:47:34;28.55;;;12.98;;
71570;SDS011;59407;42.682;23.322;2024-03-17T06:50:01;26.60;;;12.90;;
71570;SDS011;59407;42.682;23.322;2024-03-17T06:52:30;22.37;;;12.30;;
71570;SDS011;59407;42.682;23.322;2024-03-17T06:54:58;23.48;;;11.68;;
71570;SDS011;59407;42.682;23.322;2024-03-17T06:57:26;22.38;;;11.93;;
71570;SDS011;59407;42.682;23.322;2024-03-17T06:59:55;23.17;;;12.10;;
71570;SDS011;59407;42.682;23.322;2024-03-17T07:02:21;22.48;;;12.40;;
71570;SDS011;59407;42.682;23.322;2024-03-17T07:04:47;24.63;;;9.93;;
71570;SDS011;59407;42.682;23.322;2024-03-17T07:07:13;21.02;;;11.05;;
71570;SDS011;59407;42.682;23.322;2024-03-17T07:09:40;23.37;;;13.00;;
71570;SDS011;59407;42.682;23.322;2024-03-17T07:12:06;27.17;;;13.23;;
71570;SDS011;59407;42.682;23.322;2024-03-17T07:14:32;25.38;;;12.18;;
71570;SDS011;59407;42.682;23.322;2024-03-17T07:16:58;22.67;;;10.67;;
71570;SDS011;59407;42.682;23.322;2024-03-17T07:19:24;22.27;;;12.45;;
71570;SDS011;59407;42.682;23.322;2024-03-17T07:21:51;23.27;;;12.25;;
71570;SDS011;59407;42.682;23.322;2024-03-17T07:24:16;21.20;;;11.07;;
71570;SDS011;59407;42.682;23.322;2024-03-17T07:26:42;21.02;;;11.68;;
71570;SDS011;59407;42.682;23.322;2024-03-17T07:29:09;22.13;;;12.10;;
71570;SDS011;59407;42.682;23.322;2024-03-17T07:31:36;22.23;;;11.20;;
71570;SDS011;59407;42.682;23.322;2024-03-17T07:34:02;23.05;;;10.40;;
71570;SDS011;59407;42.682;23.322;2024-03-17T07:36:28;20.70;;;9.73;;
71570;SDS011;59407;42.682;23.322;2024-03-17T07:38:55;20.02;;;10.30;;
71570;SDS011;59407;42.682;23.322;2024-03-17T07:41:21;18.17;;;9.87;;
71570;SDS011;59407;42.682;23.322;2024-03-17T07:43:49;16.50;;;9.02;;
71570;SDS011;59407;42.682;23.322;2024-03-17T07:46:16;20.85;;;11.02;;
71570;SDS011;59407;42.682;23.322;2024-03-17T07:48:42;18.20;;;9.15;;
71570;SDS011;59407;42.682;23.322;2024-03-17T07:51:12;17.30;;;9.35;;
71570;SDS011;59407;42.682;23.322;2024-03-17T07:53:40;16.13;;;9.13;;
71570;SDS011;59407;42.682;23.322;2024-03-17T07:56:10;19.55;;;9.35;;
71570;SDS011;59407;42.682;23.322;2024-03-17T07:58:42;16.55;;;7.78;;
71570;SDS011;59407;42.682;23.322;2024-03-17T08:01:09;17.48;;;8.40;;
71570;SDS011;59407;42.682;23.322;2024-03-17T08:03:37;16.50;;;8.15;;
71570;SDS011;59407;42.682;23.322;2024-03-17T08:06:05;16.63;;;8.43;;
71570;SDS011;59407;42.682;23.322;2024-03-17T08:08:33;16.05;;;8.80;;
71570;SDS011;59407;42.682;23.322;2024-03-17T08:11:01;12.95;;;7.43;;
71570;SDS011;59407;42.682;23.322;2024-03-17T08:13:30;15.30;;;7.40;;
71570;SDS011;59407;42.682;23.322;2024-03-17T08:16:01;15.63;;;7.53;;
71570;SDS011;59407;42.682;23.322;2024-03-17T08:18:28;15.20;;;7.17;;
71570;SDS011;59407;42.682;23.322;2024-03-17T08:20:54;12.85;;;6.75;;
71570;SDS011;59407;42.682;23.322;2024-03-17T08:23:21;14.63;;;6.80;;
71570;SDS011;59407;42.682;23.322;2024-03-17T08:25:57;14.23;;;7.77;;
71570;SDS011;59407;42.682;23.322;2024-03-17T08:28:25;17.13;;;7.25;;
71570;SDS011;59407;42.682;23.322;2024-03-17T08:30:52;14.05;;;6.78;;
71570;SDS011;59407;42.682;23.322;2024-03-17T08:33:22;11.98;;;6.97;;
71570;SDS011;59407;42.682;23.322;2024-03-17T08:36:03;14.40;;;7.55;;
71570;SDS011;59407;42.682;23.322;2024-03-17T08:38:32;10.63;;;6.60;;
71570;SDS011;59407;42.682;23.322;2024-03-17T08:41:04;11.98;;;6.68;;
71570;SDS011;59407;42.682;23.322;2024-03-17T08:43:32;14.73;;;7.15;;
71570;SDS011;59407;42.682;23.322;2024-03-17T08:46:10;12.10;;;6.78;;
71570;SDS011;59407;42.682;23.322;2024-03-17T08:48:37;13.50;;;7.15;;
71570;SDS011;59407;42.682;23.322;2024-03-17T08:51:05;10.83;;;6.37;;
71570;SDS011;59407;42.682;23.322;2024-03-17T08:53:32;11.85;;;6.32;;
71570;SDS011;59407;42.682;23.322;2024-03-17T08:55:59;16.17;;;7.47;;
71570;SDS011;59407;42.682;23.322;2024-03-17T08:58:26;16.13;;;8.18;;
71570;SDS011;59407;42.682;23.322;2024-03-17T09:00:52;11.23;;;6.63;;
71570;SDS011;59407;42.682;23.322;2024-03-17T09:03:18;15.70;;;7.50;;
71570;SDS011;59407;42.682;23.322;2024-03-17T09:05:45;15.30;;;7.45;;
71570;SDS011;59407;42.682;23.322;2024-03-17T09:08:18;15.63;;;8.57;;
71570;SDS011;59407;42.682;23.322;2024-03-17T09:10:45;16.40;;;8.50;;
71570;SDS011;59407;42.682;23.322;2024-03-17T09:13:16;16.05;;;8.85;;
71570;SDS011;59407;42.682;23.322;2024-03-17T09:15:56;20.17;;;9.38;;
71570;SDS011;59407;42.682;23.322;2024-03-17T09:18:25;20.77;;;9.32;;
71570;SDS011;59407;42.682;23.322;2024-03-17T09:21:03;16.42;;;8.65;;
71570;SDS011;59407;42.682;23.322;2024-03-17T09:23:31;18.20;;;8.43;;
71570;SDS011;59407;42.682;23.322;2024-03-17T09:26:01;15.07;;;8.60;;
71570;SDS011;59407;42.682;23.322;2024-03-17T09:28:28;16.65;;;7.40;;
71570;SDS011;59407;42.682;23.322;2024-03-17T09:30:55;14.73;;;7.82;;
71570;SDS011;59407;42.682;23.322;2024-03-17T09:33:25;12.32;;;6.97;;
71570;SDS011;59407;42.682;23.322;2024-03-17T09:35:53;14.63;;;7.77;;
71570;SDS011;59407;42.682;23.322;2024-03-17T09:38:38;13.65;;;6.97;;
71570;SDS011;59407;42.682;23.322;2024-03-17T09:41:05;13.32;;;6.68;;
71570;SDS011;59407;42.682;23.322;2024-03-17T09:43:35;13.93;;;6.60;;
71570;SDS011;59407;42.682;23.322;2024-03-17T09:46:04;14.85;;;6.90;;
71570;SDS011;59407;42.682;23.322;2024-03-17T09:48:30;11.53;;;6.63;;
71570;SDS011;59407;42.682;23.322;2024-03-17T09:50:58;12.90;;;6.65;;
71570;SDS011;59407;42.682;23.322;2024-03-17T09:53:25;10.90;;;5.25;;
71570;SDS011;59407;42.682;23.322;2024-03-17T09:55:57;9.15;;;4.82;;
71570;SDS011;59407;42.682;23.322;2024-03-17T09:58:24;8.90;;;4.30;;
71570;SDS011;59407;42.682;23.322;2024-03-17T10:00:50;10.10;;;5.03;;
71570;SDS011;59407;42.682;23.322;2024-03-17T10:06:44;9.48;;;4.82;;
71570;SDS011;59407;42.682;23.322;2024-03-17T10:09:15;8.10;;;4.43;;
71570;SDS011;59407;42.682;23.322;2024-03-17T10:11:47;7.50;;;3.85;;
71570;SDS011;59407;42.682;23.322;2024-03-17T10:14:19;7.97;;;3.87;;
71570;SDS011;59407;42.682;23.322;2024-03-17T10:16:53;6.63;;;3.70;;
71570;SDS011;59407;42.682;23.322;2024-03-17T10:19:22;6.85;;;2.95;;
71570;SDS011;59407;42.682;23.322;2024-03-17T10:21:50;6.65;;;3.70;;
71570;SDS011;59407;42.682;23.322;2024-03-17T10:24:25;6.95;;;2.80;;
71570;SDS011;59407;42.682;23.322;2024-03-17T10:26:57;5.10;;;2.60;;
71570;SDS011;59407;42.682;23.322;2024-03-17T10:29:28;4.95;;;2.92;;
71570;SDS011;59407;42.682;23.322;2024-03-17T10:32:01;5.70;;;2.90;;
71570;SDS011;59407;42.682;23.322;2024-03-17T10:34:29;5.47;;;2.50;;
71570;SDS011;59407;42.682;23.322;2024-03-17T10:39:42;4.43;;;2.40;;
71570;SDS011;59407;42.682;23.322;2024-03-17T10:42:09;4.53;;;2.13;;
71570;SDS011;59407;42.682;23.322;2024-03-17T10:44:36;3.67;;;1.52;;
71570;SDS011;59407;42.682;23.322;2024-03-17T10:47:06;4.15;;;1.80;;
71570;SDS011;59407;42.682;23.322;2024-03-17T10:49:39;3.60;;;1.80;;
71570;SDS011;59407;42.682;23.322;2024-03-17T10:52:24;6.80;;;3.03;;
71570;SDS011;59407;42.682;23.322;2024-03-17T10:54:51;6.00;;;2.92;;
71570;SDS011;59407;42.682;23.322;2024-03-17T10:57:35;5.78;;;2.85;;
71570;SDS011;59407;42.682;23.322;2024-03-17T11:00:10;6.57;;;3.25;;
71570;SDS011;59407;42.682;23.322;2024-03-17T11:02:43;4.10;;;2.05;;
71570;SDS011;59407;42.682;23.322;2024-03-17T11:07:45;5.28;;;2.58;;
71570;SDS011;59407;42.682;23.322;2024-03-17T11:10:26;5.03;;;2.30;;
71570;SDS011;59407;42.682;23.322;2024-03-17T11:20:36;5.93;;;2.70;;
71570;SDS011;59407;42.682;23.322;2024-03-17T11:23:06;6.05;;;3.15;;
71570;SDS011;59407;42.682;23.322;2024-03-17T11:25:36;6.10;;;3.25;;
71570;SDS011;59407;42.682;23.322;2024-03-17T11:28:09;8.38;;;3.72;;
71570;SDS011;59407;42.682;23.322;2024-03-17T11:31:31;7.43;;;3.60;;
71570;SDS011;59407;42.682;23.322;2024-03-17T11:40:22;5.20;;;2.60;;
71570;SDS011;59407;42.682;23.322;2024-03-17T11:43:12;5.03;;;2.40;;
71570;SDS011;59407;42.682;23.322;2024-03-17T11:45:38;5.77;;;2.80;;
71570;SDS011;59407;42.682;23.322;2024-03-17T11:48:11;5.28;;;2.03;;
71570;SDS011;59407;42.682;23.322;2024-03-17T11:50:41;4.65;;;2.38;;
71570;SDS011;59407;42.682;23.322;2024-03-17T11:53:09;4.97;;;2.20;;
71570;SDS011;59407;42.682;23.322;2024-03-17T11:55:36;4.32;;;2.55;;
71570;SDS011;59407;42.682;23.322;2024-03-17T11:58:11;4.87;;;2.77;;
71570;SDS011;59407;42.682;23.322;2024-03-17T12:00:40;4.13;;;1.83;;
71570;SDS011;59407;42.682;23.322;2024-03-17T12:03:09;4.93;;;2.45;;
71570;SDS011;59407;42.682;23.322;2024-03-17T12:05:39;4.68;;;2.22;;
71570;SDS011;59407;42.682;23.322;2024-03-17T12:08:17;6.15;;;3.05;;
71570;SDS011;59407;42.682;23.322;2024-03-17T12:10:49;5.73;;;3.00;;
71570;SDS011;59407;42.682;23.322;2024-03-17T12:13:17;6.18;;;3.20;;
71570;SDS011;59407;42.682;23.322;2024-03-17T12:15:42;5.13;;;2.72;;
71570;SDS011;59407;42.682;23.322;2024-03-17T12:18:24;5.00;;;2.97;;
71570;SDS011;59407;42.682;23.322;2024-03-17T12:20:54;5.63;;;2.35;;
71570;SDS011;59407;42.682;23.322;2024-03-17T12:23:23;5.70;;;2.50;;
71570;SDS011;59407;42.682;23.322;2024-03-17T12:25:48;5.83;;;2.63;;
71570;SDS011;59407;42.682;23.322;2024-03-17T12:28:18;6.47;;;2.92;;
71570;SDS011;59407;42.682;23.322;2024-03-17T12:30:44;3.92;;;2.00;;
71570;SDS011;59407;42.682;23.322;2024-03-17T12:33:11;7.18;;;3.28;;
71570;SDS011;59407;42.682;23.322;2024-03-17T12:35:40;6.33;;;2.60;;
71570;SDS011;59407;42.682;23.322;2024-03-17T12:38:22;5.45;;;2.42;;
71570;SDS011;59407;42.682;23.322;2024-03-17T12:40:48;4.82;;;2.58;;
71570;SDS011;59407;42.682;23.322;2024-03-17T12:43:15;5.50;;;2.72;;
71570;SDS011;59407;42.682;23.322;2024-03-17T12:45:42;5.47;;;3.20;;
71570;SDS011;59407;42.682;23.322;2024-03-17T12:48:14;6.10;;;2.70;;
71570;SDS011;59407;42.682;23.322;2024-03-17T12:50:44;8.95;;;3.42;;
71570;SDS011;59407;42.682;23.322;2024-03-17T12:53:16;5.18;;;3.10;;
71570;SDS011;59407;42.682;23.322;2024-03-17T12:55:52;4.95;;;2.80;;
71570;SDS011;59407;42.682;23.322;2024-03-17T12:58:38;5.97;;;3.22;;
71570;SDS011;59407;42.682;23.322;2024-03-17T13:01:23;7.33;;;3.40;;
71570;SDS011;59407;42.682;23.322;2024-03-17T13:03:51;6.90;;;3.88;;
71570;SDS011;59407;42.682;23.322;2024-03-17T13:06:23;9.35;;;3.78;;
71570;SDS011;59407;42.682;23.322;2024-03-17T13:08:50;7.23;;;2.63;;
71570;SDS011;59407;42.682;23.322;2024-03-17T13:11:21;6.72;;;3.58;;
71570;SDS011;59407;42.682;23.322;2024-03-17T13:13:50;6.03;;;3.65;;
71570;SDS011;59407;42.682;23.322;2024-03-17T13:16:18;6.63;;;3.53;;
71570;SDS011;59407;42.682;23.322;2024-03-17T13:18:45;6.72;;;3.35;;
71570;SDS011;59407;42.682;23.322;2024-03-17T13:21:12;6.07;;;3.50;;
71570;SDS011;59407;42.682;23.322;2024-03-17T13:23:40;7.38;;;4.47;;
71570;SDS011;59407;42.682;23.322;2024-03-17T13:26:23;9.48;;;4.85;;
71570;SDS011;59407;42.682;23.322;2024-03-17T13:28:51;7.85;;;4.43;;
71570;SDS011;59407;42.682;23.322;2024-03-17T13:31:19;7.25;;;4.20;;
71570;SDS011;59407;42.682;23.322;2024-03-17T13:33:47;6.83;;;4.37;;
71570;SDS011;59407;42.682;23.322;2024-03-17T13:36:18;7.15;;;3.97;;
71570;SDS011;59407;42.682;23.322;2024-03-17T13:38:44;8.68;;;4.30;;
71570;SDS011;59407;42.682;23.322;2024-03-17T13:41:10;8.57;;;4.63;;
71570;SDS011;59407;42.682;23.322;2024-03-17T13:43:37;5.18;;;2.75;;
71570;SDS011;59407;42.682;23.322;2024-03-17T13:46:03;8.87;;;3.80;;
71570;SDS011;59407;42.682;23.322;2024-03-17T13:48:32;9.18;;;4.32;;
71570;SDS011;59407;42.682;23.322;2024-03-17T13:51:00;8.82;;;4.57;;
71570;SDS011;59407;42.682;23.322;2024-03-17T13:53:33;6.55;;;3.72;;
71570;SDS011;59407;42.682;23.322;2024-03-17T13:56:06;9.07;;;4.38;;
71570;SDS011;59407;42.682;23.322;2024-03-17T13:58:36;9.47;;;4.87;;
71570;SDS011;59407;42.682;23.322;2024-03-17T14:01:05;9.75;;;3.95;;
71570;SDS011;59407;42.682;23.322;2024-03-17T14:03:38;6.47;;;3.70;;
71570;SDS011;59407;42.682;23.322;2024-03-17T14:06:09;7.60;;;4.00;;
71570;SDS011;59407;42.682;23.322;2024-03-17T14:08:40;7.00;;;3.95;;
71570;SDS011;59407;42.682;23.322;2024-03-17T14:11:11;6.90;;;3.93;;
71570;SDS011;59407;42.682;23.322;2024-03-17T14:13:41;8.93;;;4.43;;
71570;SDS011;59407;42.682;23.322;2024-03-17T14:16:09;8.88;;;4.35;;
71570;SDS011;59407;42.682;23.322;2024-03-17T14:18:38;8.50;;;4.13;;
71570;SDS011;59407;42.682;23.322;2024-03-17T14:21:13;7.80;;;4.30;;
71570;SDS011;59407;42.682;23.322;2024-03-17T14:23:43;9.20;;;4.67;;
71570;SDS011;59407;42.682;23.322;2024-03-17T14:26:11;9.35;;;4.30;;
71570;SDS011;59407;42.682;23.322;2024-03-17T14:28:39;7.75;;;4.18;;
71570;SDS011;59407;42.682;23.322;2024-03-17T14:31:06;10.90;;;4.40;;
71570;SDS011;59407;42.682;23.322;2024-03-17T14:33:31;10.70;;;4.77;;
71570;SDS011;59407;42.682;23.322;2024-03-17T14:36:01;10.93;;;5.32;;
71570;SDS011;59407;42.682;23.322;2024-03-17T14:38:28;7.13;;;3.80;;
71570;SDS011;59407;42.682;23.322;2024-03-17T14:40:55;8.77;;;4.10;;
71570;SDS011;59407;42.682;23.322;2024-03-17T14:43:23;10.02;;;4.95;;
71570;SDS011;59407;42.682;23.322;2024-03-17T14:45:50;11.23;;;4.38;;
71570;SDS011;59407;42.682;23.322;2024-03-17T14:48:17;8.93;;;4.40;;
71570;SDS011;59407;42.682;23.322;2024-03-17T14:50:43;12.02;;;4.70;;